Time;durP1;ratioP1;P1;durP2;ratioP2;P2;SDS_P1;SDS_P2;PMS_P1;PMS_P2;Temp;Humidity;BMP_temperature;BMP_pressure;BME280_temperature;BME280_humidity;BME280_pressure;Samples;Min_cycle;Max_cycle;Signal;HPM_P1;HPM_P2
2021/03/03 05:49:04;;;;;;;14.73;9.70;;;;;;;;;;5107069;27;20351;-82
2021/03/03 05:51:31;;;;;;;15.43;9.20;;;;;;;;;;5114533;28;20092;-81
2021/03/03 05:53:58;;;;;;;18.65;10.00;;;;;;;;;;5098374;28;20024;-82
2021/03/03 05:56:24;;;;;;;12.73;7.88;;;;;;;;;;5105487;28;20028;-81
2021/03/03 05:58:50;;;;;;;16.95;8.93;;;;;;;;;;5118438;27;20019;-82
2021/03/03 06:01:17;;;;;;;13.65;8.35;;;;;;;;;;5110420;28;20414;-84
2021/03/03 06:03:43;;;;;;;15.07;8.07;;;;;;;;;;5115881;28;20110;-83
2021/03/03 06:06:09;;;;;;;19.83;8.95;;;;;;;;;;5098887;28;20485;-83
2021/03/03 06:08:35;;;;;;;17.15;9.30;;;;;;;;;;5101351;28;20027;-83
2021/03/03 06:11:01;;;;;;;20.10;8.93;;;;;;;;;;5111259;28;20030;-84
2021/03/03 06:13:27;;;;;;;18.25;9.35;;;;;;;;;;5110241;28;20085;-83
2021/03/03 06:15:53;;;;;;;19.63;9.65;;;;;;;;;;5121045;28;20020;-82
2021/03/03 06:18:19;;;;;;;16.75;8.98;;;;;;;;;;5101158;28;20076;-78
2021/03/03 06:20:46;;;;;;;15.98;8.95;;;;;;;;;;5101422;28;20054;-78
2021/03/03 06:23:16;;;;;;;17.73;9.48;;;;;;;;;;5097439;28;20020;-77
2021/03/03 06:25:42;;;;;;;14.70;8.70;;;;;;;;;;5102379;28;20016;-78
2021/03/03 06:30:30;;;;;;;14.25;8.35;;;;;;;;;;5112498;27;20388;-78
2021/03/03 06:32:57;;;;;;;18.73;9.32;;;;;;;;;;5110077;28;20081;-77
2021/03/03 06:35:32;;;;;;;16.20;10.02;;;;;;;;;;5109674;28;20041;-78
2021/03/03 06:37:58;;;;;;;19.08;9.75;;;;;;;;;;5111052;28;20071;-78
2021/03/03 06:40:24;;;;;;;17.48;9.98;;;;;;;;;;5100897;28;20024;-79
2021/03/03 06:42:50;;;;;;;15.32;9.40;;;;;;;;;;5103714;28;20021;-79
2021/03/03 06:45:27;;;;;;;19.27;10.65;;;;;;;;;;5099348;28;20036;-79
2021/03/03 06:47:53;;;;;;;16.48;9.75;;;;;;;;;;5094537;28;20032;-80
2021/03/03 06:50:19;;;;;;;15.65;9.75;;;;;;;;;;5096031;28;20032;-80
2021/03/03 06:52:45;;;;;;;16.73;9.60;;;;;;;;;;5110336;28;20027;-79
2021/03/03 06:55:12;;;;;;;16.38;9.15;;;;;;;;;;5103472;28;20024;-78
2021/03/03 06:57:37;;;;;;;17.10;9.90;;;;;;;;;;5098531;28;20095;-79
2021/03/03 07:00:05;;;;;;;19.95;10.20;;;;;;;;;;5100643;28;20073;-79
2021/03/03 07:02:34;;;;;;;20.73;10.23;;;;;;;;;;5102644;28;20028;-78
2021/03/03 07:05:01;;;;;;;20.40;10.88;;;;;;;;;;5103731;28;20020;-79
2021/03/03 07:07:27;;;;;;;20.85;11.38;;;;;;;;;;5102663;28;20050;-78
2021/03/03 07:09:53;;;;;;;21.05;11.20;;;;;;;;;;5099409;28;20024;-79
2021/03/03 07:12:23;;;;;;;17.45;10.13;;;;;;;;;;5102858;28;20061;-78
2021/03/03 07:15:03;;;;;;;18.90;10.68;;;;;;;;;;5100603;28;20028;-78
2021/03/03 07:17:35;;;;;;;16.33;10.05;;;;;;;;;;5097050;28;20276;-79
2021/03/03 07:20:05;;;;;;;21.27;11.05;;;;;;;;;;5101323;28;20039;-76
2021/03/03 07:22:32;;;;;;;15.93;9.80;;;;;;;;;;5101718;28;20050;-76
2021/03/03 07:24:59;;;;;;;17.58;9.05;;;;;;;;;;5101115;28;20038;-75
2021/03/03 07:27:25;;;;;;;20.50;11.50;;;;;;;;;;5092224;28;20032;-75
2021/03/03 07:29:52;;;;;;;19.63;11.93;;;;;;;;;;5095509;28;20105;-75
2021/03/03 07:32:19;;;;;;;23.17;13.27;;;;;;;;;;5100140;28;20154;-75
2021/03/03 07:34:48;;;;;;;22.23;13.98;;;;;;;;;;5096521;28;20081;-75
2021/03/03 07:37:15;;;;;;;25.35;13.00;;;;;;;;;;5098783;28;20051;-75
2021/03/03 07:39:41;;;;;;;20.70;12.30;;;;;;;;;;5101580;28;20019;-75
2021/03/03 07:42:15;;;;;;;21.95;12.85;;;;;;;;;;5085703;28;20047;-75
2021/03/03 07:44:41;;;;;;;21.90;12.65;;;;;;;;;;5080099;28;20023;-75
2021/03/03 07:47:07;;;;;;;25.30;15.50;;;;;;;;;;5082735;28;20028;-75
2021/03/03 07:49:34;;;;;;;25.33;15.25;;;;;;;;;;5083227;28;20060;-75
2021/03/03 07:52:00;;;;;;;24.60;14.73;;;;;;;;;;5080594;28;20024;-77
2021/03/03 07:54:26;;;;;;;28.70;17.63;;;;;;;;;;5077094;28;20031;-79
2021/03/03 07:56:52;;;;;;;34.33;17.52;;;;;;;;;;5081844;28;20039;-78
2021/03/03 07:59:18;;;;;;;29.98;15.70;;;;;;;;;;5079991;28;20657;-79
2021/03/03 08:01:43;;;;;;;24.45;14.73;;;;;;;;;;5087171;28;20028;-79
2021/03/03 08:04:09;;;;;;;23.45;14.05;;;;;;;;;;5082553;28;20024;-79
2021/03/03 08:06:36;;;;;;;24.45;14.23;;;;;;;;;;5086402;28;20051;-78
2021/03/03 08:09:05;;;;;;;28.13;14.40;;;;;;;;;;5095668;28;20081;-78
2021/03/03 08:11:32;;;;;;;26.90;14.82;;;;;;;;;;5074024;28;20376;-79
2021/03/03 08:13:58;;;;;;;29.63;15.02;;;;;;;;;;5078291;28;20017;-79
2021/03/03 08:16:24;;;;;;;23.27;13.85;;;;;;;;;;5082498;28;20063;-79
2021/03/03 08:18:51;;;;;;;27.00;15.65;;;;;;;;;;5078336;28;20021;-79
2021/03/03 08:21:17;;;;;;;23.52;13.77;;;;;;;;;;5072127;28;20035;-78
2021/03/03 08:23:55;;;;;;;24.63;13.75;;;;;;;;;;5078795;28;20024;-79
2021/03/03 08:26:21;;;;;;;26.10;13.40;;;;;;;;;;5083208;28;20095;-78
2021/03/03 08:28:51;;;;;;;26.02;15.60;;;;;;;;;;5082864;28;20032;-78
2021/03/03 08:31:17;;;;;;;26.17;14.57;;;;;;;;;;5078569;28;20541;-79
2021/03/03 08:33:43;;;;;;;18.63;11.65;;;;;;;;;;5086241;28;20384;-79
2021/03/03 08:36:13;;;;;;;20.85;11.02;;;;;;;;;;5082635;28;20013;-79
2021/03/03 08:38:38;;;;;;;20.17;12.80;;;;;;;;;;5077229;28;20526;-79
2021/03/03 08:41:16;;;;;;;29.08;14.25;;;;;;;;;;5086412;28;20024;-79
2021/03/03 08:43:43;;;;;;;25.13;14.27;;;;;;;;;;5082850;28;20020;-79
2021/03/03 08:46:20;;;;;;;23.50;14.82;;;;;;;;;;5078456;28;20496;-78
2021/03/03 08:48:52;;;;;;;40.47;23.48;;;;;;;;;;5077947;28;20028;-78
2021/03/03 08:51:18;;;;;;;;;;;;;;;;;;5064132;28;20028;-78
2021/03/03 08:53:49;;;;;;;26.67;15.52;;;;;;;;;;5079183;28;19919;-79
2021/03/03 08:56:34;;;;;;;25.58;15.50;;;;;;;;;;5079452;28;20430;-79
2021/03/03 08:59:00;;;;;;;28.52;15.80;;;;;;;;;;5081512;28;20485;-79
2021/03/03 09:01:45;;;;;;;25.83;16.48;;;;;;;;;;5083526;28;20043;-78
2021/03/03 09:04:11;;;;;;;27.33;17.58;;;;;;;;;;5073171;28;20048;-79
2021/03/03 09:06:37;;;;;;;27.48;17.20;;;;;;;;;;5079367;28;20698;-79
2021/03/03 09:09:03;;;;;;;24.40;15.70;;;;;;;;;;5083700;28;20051;-79
2021/03/03 09:11:28;;;;;;;28.83;16.10;;;;;;;;;;5076697;28;20024;-78
2021/03/03 09:13:55;;;;;;;27.27;15.40;;;;;;;;;;5078552;28;20034;-79
2021/03/03 09:16:20;;;;;;;28.30;15.80;;;;;;;;;;5080554;28;20060;-78
2021/03/03 09:18:46;;;;;;;28.30;13.70;;;;;;;;;;5076458;28;20020;-79
2021/03/03 09:21:12;;;;;;;25.83;14.00;;;;;;;;;;5081896;28;20028;-79
2021/03/03 09:23:38;;;;;;;24.77;14.63;;;;;;;;;;5081232;28;20024;-79
2021/03/03 09:26:18;;;;;;;23.80;13.63;;;;;;;;;;5073495;28;20072;-79
2021/03/03 09:28:43;;;;;;;27.02;15.02;;;;;;;;;;5075078;28;20115;-80
2021/03/03 09:31:09;;;;;;;30.95;15.13;;;;;;;;;;5079229;28;20029;-79
2021/03/03 09:33:35;;;;;;;27.85;13.70;;;;;;;;;;5070877;28;20441;-79
2021/03/03 09:36:01;;;;;;;28.83;15.18;;;;;;;;;;5075361;28;20406;-79
2021/03/03 09:38:29;;;;;;;25.63;13.60;;;;;;;;;;5075935;28;20032;-80
2021/03/03 09:40:55;;;;;;;27.65;14.05;;;;;;;;;;5078728;28;20020;-79
2021/03/03 09:43:21;;;;;;;22.13;13.55;;;;;;;;;;5077031;28;20082;-80
2021/03/03 09:45:47;;;;;;;25.83;13.35;;;;;;;;;;5075387;28;20032;-80
2021/03/03 09:48:13;;;;;;;24.60;13.70;;;;;;;;;;5079267;28;20032;-80
2021/03/03 09:50:38;;;;;;;21.23;13.00;;;;;;;;;;5070550;28;20460;-77
2021/03/03 09:53:04;;;;;;;21.30;13.13;;;;;;;;;;5079603;28;20025;-80
2021/03/03 09:55:34;;;;;;;23.80;12.23;;;;;;;;;;5075267;28;20016;-79
2021/03/03 09:58:00;;;;;;;18.77;11.68;;;;;;;;;;5075951;28;20027;-80
2021/03/03 10:00:30;;;;;;;21.45;11.65;;;;;;;;;;5066827;28;20060;-79
2021/03/03 10:02:58;;;;;;;26.50;12.65;;;;;;;;;;5074369;28;20035;-79
2021/03/03 10:05:28;;;;;;;19.40;11.38;;;;;;;;;;5070668;28;20024;-79
2021/03/03 10:08:02;;;;;;;22.80;11.60;;;;;;;;;;5076328;28;20480;-78
2021/03/03 10:10:29;;;;;;;17.63;10.88;;;;;;;;;;5074909;28;20380;-80
2021/03/03 10:12:55;;;;;;;16.90;11.23;;;;;;;;;;5079372;28;20058;-80
2021/03/03 10:15:22;;;;;;;20.77;11.63;;;;;;;;;;5077024;28;20032;-80
2021/03/03 10:17:53;;;;;;;20.00;11.70;;;;;;;;;;5073706;28;20538;-80
2021/03/03 10:20:38;;;;;;;18.30;11.05;;;;;;;;;;5091455;28;20028;-79
2021/03/03 10:23:11;;;;;;;15.23;10.02;;;;;;;;;;5078323;28;20050;-80
2021/03/03 10:25:37;;;;;;;18.27;10.23;;;;;;;;;;5076602;28;20329;-79
2021/03/03 10:28:04;;;;;;;16.83;10.95;;;;;;;;;;5076959;28;20112;-79
2021/03/03 10:32:48;;;;;;;19.02;10.68;;;;;;;;;;5097884;27;20376;-80
2021/03/03 10:35:14;;;;;;;18.00;10.55;;;;;;;;;;5079410;28;20032;-79
2021/03/03 10:37:40;;;;;;;21.40;10.48;;;;;;;;;;5083069;28;20039;-79
2021/03/03 10:40:15;;;;;;;20.23;10.80;;;;;;;;;;5076119;28;20020;-79
2021/03/03 10:42:41;;;;;;;21.90;11.20;;;;;;;;;;5076754;28;20032;-79
2021/03/03 10:45:18;;;;;;;17.73;10.80;;;;;;;;;;5073345;28;20103;-80
2021/03/03 10:47:49;;;;;;;22.13;10.63;;;;;;;;;;5079460;28;20020;-80
2021/03/03 10:50:15;;;;;;;16.83;10.73;;;;;;;;;;5083122;28;20082;-79
2021/03/03 10:52:54;;;;;;;17.60;10.90;;;;;;;;;;5073777;28;20016;-80
2021/03/03 10:55:21;;;;;;;27.85;12.10;;;;;;;;;;5075455;28;20064;-79
2021/03/03 10:58:04;;;;;;;21.50;11.45;;;;;;;;;;5073144;28;20016;-80
2021/03/03 11:00:30;;;;;;;19.92;11.77;;;;;;;;;;5075213;28;20012;-80
2021/03/03 11:03:13;;;;;;;17.20;10.65;;;;;;;;;;5077666;28;20024;-80
2021/03/03 11:05:39;;;;;;;16.73;10.68;;;;;;;;;;5075775;28;20047;-80
2021/03/03 11:08:05;;;;;;;16.85;10.35;;;;;;;;;;5079364;28;20056;-80
2021/03/03 11:10:31;;;;;;;19.25;10.57;;;;;;;;;;5075782;28;20021;-80
2021/03/03 11:13:00;;;;;;;16.98;9.32;;;;;;;;;;5077460;28;20108;-80
2021/03/03 11:15:25;;;;;;;17.90;10.40;;;;;;;;;;5078705;28;20017;-80
2021/03/03 11:17:51;;;;;;;16.13;9.68;;;;;;;;;;5083190;28;20488;-80
2021/03/03 11:20:17;;;;;;;14.85;9.38;;;;;;;;;;5077794;28;20128;-80
2021/03/03 11:22:42;;;;;;;15.93;9.85;;;;;;;;;;5077926;28;20446;-80
2021/03/03 11:25:08;;;;;;;16.17;10.00;;;;;;;;;;5087348;28;20115;-81
2021/03/03 11:27:34;;;;;;;22.70;12.93;;;;;;;;;;5079771;28;20466;-80
2021/03/03 11:30:00;;;;;;;19.75;12.07;;;;;;;;;;5081974;28;20091;-80
2021/03/03 11:32:25;;;;;;;18.00;10.07;;;;;;;;;;5080081;28;20030;-80
2021/03/03 11:34:51;;;;;;;17.25;9.63;;;;;;;;;;5085043;28;20025;-80
2021/03/03 11:37:17;;;;;;;14.50;8.20;;;;;;;;;;5076905;28;20023;-79
2021/03/03 11:39:43;;;;;;;16.20;8.73;;;;;;;;;;5081002;28;20737;-79
2021/03/03 11:42:09;;;;;;;12.80;7.18;;;;;;;;;;5083396;28;20035;-80
2021/03/03 11:44:34;;;;;;;16.95;7.65;;;;;;;;;;5071287;28;20025;-80
2021/03/03 11:47:00;;;;;;;14.85;7.15;;;;;;;;;;5067621;28;20023;-81
2021/03/03 11:49:26;;;;;;;13.95;7.70;;;;;;;;;;5065858;28;20027;-80
2021/03/03 11:51:52;;;;;;;17.02;7.50;;;;;;;;;;5058240;28;20788;-80
2021/03/03 11:54:17;;;;;;;14.02;7.13;;;;;;;;;;5072258;28;20052;-80
2021/03/03 11:56:43;;;;;;;12.52;5.78;;;;;;;;;;5067840;28;20019;-80
2021/03/03 11:59:09;;;;;;;12.00;6.38;;;;;;;;;;5061933;28;20027;-80
2021/03/03 12:01:35;;;;;;;12.80;6.95;;;;;;;;;;5065805;28;20021;-80
2021/03/03 12:04:00;;;;;;;14.52;6.20;;;;;;;;;;5060518;28;20027;-83
2021/03/03 12:06:26;;;;;;;12.63;7.45;;;;;;;;;;5062146;28;20111;-80
2021/03/03 12:08:52;;;;;;;10.43;5.80;;;;;;;;;;5067078;28;20032;-80
2021/03/03 12:11:18;;;;;;;12.35;5.68;;;;;;;;;;5069291;28;20035;-80
2021/03/03 12:13:44;;;;;;;10.32;5.60;;;;;;;;;;5072835;28;20348;-81
2021/03/03 12:16:09;;;;;;;9.52;5.25;;;;;;;;;;5068755;28;20031;-81
2021/03/03 12:20:54;;;;;;;11.48;5.38;;;;;;;;;;5113868;27;20356;-79
2021/03/03 12:23:19;;;;;;;12.25;5.40;;;;;;;;;;5089825;28;20107;-79
2021/03/03 12:25:45;;;;;;;10.93;5.60;;;;;;;;;;5099051;28;20024;-79
2021/03/03 12:28:11;;;;;;;16.20;5.97;;;;;;;;;;5087476;28;20096;-79
2021/03/03 12:30:36;;;;;;;11.75;5.60;;;;;;;;;;5087282;28;20124;-80
2021/03/03 12:33:02;;;;;;;7.38;4.18;;;;;;;;;;5077290;28;20021;-79
2021/03/03 12:37:45;;;;;;;12.98;5.60;;;;;;;;;;5108850;27;20384;-79
2021/03/03 12:40:11;;;;;;;9.27;5.65;;;;;;;;;;5102951;28;20502;-78
2021/03/03 12:42:37;;;;;;;11.68;5.32;;;;;;;;;;5113008;28;20118;-78
2021/03/03 12:45:03;;;;;;;9.60;5.25;;;;;;;;;;5109001;28;20111;-79
2021/03/03 12:47:29;;;;;;;11.68;5.60;;;;;;;;;;5115002;28;20023;-79
2021/03/03 12:49:55;;;;;;;14.75;6.03;;;;;;;;;;5121203;27;20019;-78
2021/03/03 12:52:21;;;;;;;9.13;4.97;;;;;;;;;;5096962;28;20099;-79
2021/03/03 12:54:46;;;;;;;12.43;5.18;;;;;;;;;;5100531;27;20508;-79
2021/03/03 12:57:12;;;;;;;8.85;4.78;;;;;;;;;;5102978;28;20429;-79
2021/03/03 12:59:38;;;;;;;10.18;4.80;;;;;;;;;;5101222;28;20037;-79
2021/03/03 13:02:04;;;;;;;7.75;4.55;;;;;;;;;;5093642;28;20481;-78
2021/03/03 13:04:29;;;;;;;10.65;4.88;;;;;;;;;;5101869;28;20429;-78
2021/03/03 13:06:55;;;;;;;14.27;6.43;;;;;;;;;;5110075;28;20110;-79
2021/03/03 13:09:21;;;;;;;9.77;4.93;;;;;;;;;;5119345;28;20078;-82
2021/03/03 13:11:46;;;;;;;10.52;4.88;;;;;;;;;;5128996;28;20071;-83
2021/03/03 13:14:12;;;;;;;18.73;9.27;;;;;;;;;;5115988;28;20043;-82
2021/03/03 13:16:38;;;;;;;14.27;8.23;;;;;;;;;;5112067;28;20026;-79
2021/03/03 13:19:04;;;;;;;12.18;7.05;;;;;;;;;;5097415;28;20034;-79
2021/03/03 13:21:30;;;;;;;21.40;14.23;;;;;;;;;;5098855;28;20038;-79
2021/03/03 13:23:55;;;;;;;30.85;16.38;;;;;;;;;;5092448;28;20094;-79
2021/03/03 13:26:21;;;;;;;15.50;7.72;;;;;;;;;;5109347;28;20531;-80
2021/03/03 13:28:47;;;;;;;18.02;10.93;;;;;;;;;;5118025;27;20080;-79
2021/03/03 13:31:13;;;;;;;11.95;5.68;;;;;;;;;;5120689;28;20047;-79
2021/03/03 13:33:38;;;;;;;7.75;4.22;;;;;;;;;;5102596;28;20058;-79
2021/03/03 13:36:04;;;;;;;9.18;4.15;;;;;;;;;;5116465;28;20024;-80
2021/03/03 13:38:30;;;;;;;10.65;5.25;;;;;;;;;;5120919;27;20021;-79
2021/03/03 13:40:56;;;;;;;8.65;4.88;;;;;;;;;;5124676;28;20035;-79
2021/03/03 13:43:21;;;;;;;8.52;4.93;;;;;;;;;;5122558;28;20039;-78
2021/03/03 13:45:47;;;;;;;11.10;4.95;;;;;;;;;;5116342;28;20441;-80
2021/03/03 13:48:13;;;;;;;10.13;5.30;;;;;;;;;;5102529;28;20397;-79
2021/03/03 13:50:38;;;;;;;10.90;5.85;;;;;;;;;;5091825;28;20562;-82
2021/03/03 13:53:04;;;;;;;10.32;4.00;;;;;;;;;;5094226;28;20020;-81
2021/03/03 13:55:30;;;;;;;9.75;4.63;;;;;;;;;;5101785;28;20059;-82
2021/03/03 13:57:55;;;;;;;8.77;4.57;;;;;;;;;;5106160;28;20048;-80
2021/03/03 14:00:21;;;;;;;9.07;4.38;;;;;;;;;;5107193;28;20027;-83
2021/03/03 14:02:48;;;;;;;11.23;4.97;;;;;;;;;;5090249;28;20019;-82
2021/03/03 14:05:14;;;;;;;9.80;6.43;;;;;;;;;;5107448;28;20023;-81
2021/03/03 14:09:57;;;;;;;11.55;4.80;;;;;;;;;;5110939;27;20356;-82
2021/03/03 14:12:23;;;;;;;7.47;4.18;;;;;;;;;;5111592;28;20036;-82
2021/03/03 14:14:49;;;;;;;13.70;5.00;;;;;;;;;;5111731;28;20094;-81
2021/03/03 14:17:14;;;;;;;6.55;3.97;;;;;;;;;;5118083;28;20106;-82
2021/03/03 14:19:42;;;;;;;9.93;4.55;;;;;;;;;;5109583;28;20058;-82
2021/03/03 14:22:07;;;;;;;8.68;4.78;;;;;;;;;;5108578;28;20058;-82
2021/03/03 14:24:33;;;;;;;8.57;4.20;;;;;;;;;;5100762;28;20114;-82
2021/03/03 14:26:59;;;;;;;7.82;4.57;;;;;;;;;;5105415;28;20020;-82
2021/03/03 14:29:24;;;;;;;11.57;4.90;;;;;;;;;;5108298;28;20038;-82
2021/03/03 14:31:50;;;;;;;8.98;4.13;;;;;;;;;;5100329;28;20127;-80
2021/03/03 14:34:16;;;;;;;8.77;4.53;;;;;;;;;;5106485;28;20123;-82
2021/03/03 14:36:42;;;;;;;7.90;3.97;;;;;;;;;;5108470;28;20012;-82
2021/03/03 14:39:07;;;;;;;7.50;3.83;;;;;;;;;;5108411;28;20090;-82
2021/03/03 14:41:33;;;;;;;8.38;4.43;;;;;;;;;;5107197;28;20016;-82
2021/03/03 14:43:59;;;;;;;8.35;4.20;;;;;;;;;;5108185;28;20027;-81
2021/03/03 14:46:25;;;;;;;10.38;4.18;;;;;;;;;;5101437;28;20024;-83
2021/03/03 14:48:51;;;;;;;11.18;4.72;;;;;;;;;;5095330;28;20438;-83
2021/03/03 14:51:18;;;;;;;8.80;3.92;;;;;;;;;;5095324;28;20028;-84
2021/03/03 14:53:43;;;;;;;8.27;3.97;;;;;;;;;;5097642;28;20044;-83
2021/03/03 14:56:09;;;;;;;7.93;3.60;;;;;;;;;;5092724;28;20110;-83
2021/03/03 14:58:35;;;;;;;8.13;3.97;;;;;;;;;;5104165;28;20073;-81
2021/03/03 15:01:00;;;;;;;8.48;4.70;;;;;;;;;;5103441;28;19923;-83
2021/03/03 15:03:26;;;;;;;8.10;4.03;;;;;;;;;;5098411;28;20420;-83
2021/03/03 15:05:52;;;;;;;7.95;3.95;;;;;;;;;;5098213;28;20361;-83
2021/03/03 15:08:17;;;;;;;9.32;4.47;;;;;;;;;;5094901;28;20739;-83
2021/03/03 15:10:43;;;;;;;8.68;4.88;;;;;;;;;;5098137;28;20475;-79
2021/03/03 15:13:09;;;;;;;6.63;3.63;;;;;;;;;;5101764;28;20028;-81
2021/03/03 15:15:39;;;;;;;10.07;4.18;;;;;;;;;;5102139;28;20016;-80
2021/03/03 15:18:05;;;;;;;6.85;4.35;;;;;;;;;;5096143;28;20017;-83
2021/03/03 15:20:31;;;;;;;8.05;4.25;;;;;;;;;;5086338;28;20039;-83
2021/03/03 15:22:57;;;;;;;7.18;3.85;;;;;;;;;;5085035;28;20039;-83
2021/03/03 15:25:24;;;;;;;7.07;4.40;;;;;;;;;;5086002;28;20497;-83
2021/03/03 15:27:50;;;;;;;10.63;4.38;;;;;;;;;;5084166;28;20047;-82
2021/03/03 15:30:16;;;;;;;8.35;3.70;;;;;;;;;;5085495;28;20096;-84
2021/03/03 15:32:41;;;;;;;6.60;3.17;;;;;;;;;;5086296;28;20027;-83
2021/03/03 15:35:07;;;;;;;6.78;4.03;;;;;;;;;;5084425;28;20439;-83
2021/03/03 15:37:33;;;;;;;7.88;4.28;;;;;;;;;;5081979;28;20020;-83
2021/03/03 15:39:59;;;;;;;6.80;3.50;;;;;;;;;;5082978;28;20030;-84
2021/03/03 15:42:24;;;;;;;10.77;3.60;;;;;;;;;;5084254;28;20119;-84
2021/03/03 15:44:50;;;;;;;6.03;2.92;;;;;;;;;;5086135;28;20107;-85
2021/03/03 15:47:16;;;;;;;5.75;3.50;;;;;;;;;;5080108;28;20365;-85
2021/03/03 15:49:42;;;;;;;7.90;3.30;;;;;;;;;;5083749;28;20024;-84
2021/03/03 15:52:07;;;;;;;6.30;3.70;;;;;;;;;;5089106;28;20035;-84
2021/03/03 15:54:33;;;;;;;6.15;3.45;;;;;;;;;;5083738;28;20048;-85
2021/03/03 15:56:59;;;;;;;6.78;3.38;;;;;;;;;;5087652;28;20095;-84
2021/03/03 15:59:26;;;;;;;5.22;3.03;;;;;;;;;;5076455;28;20115;-85
2021/03/03 16:01:51;;;;;;;8.32;3.38;;;;;;;;;;5076339;28;20040;-85
2021/03/03 16:04:17;;;;;;;8.98;4.00;;;;;;;;;;5082707;28;20035;-84
2021/03/03 16:09:02;;;;;;;10.77;4.05;;;;;;;;;;5103938;27;20472;-84
2021/03/03 16:11:28;;;;;;;6.80;3.75;;;;;;;;;;5091474;28;20035;-82
2021/03/03 16:13:54;;;;;;;5.85;3.35;;;;;;;;;;5092431;28;20058;-84
2021/03/03 16:16:20;;;;;;;6.68;3.42;;;;;;;;;;5078812;28;20495;-80
2021/03/03 16:18:45;;;;;;;6.75;3.28;;;;;;;;;;5096688;28;20077;-82
2021/03/03 16:21:11;;;;;;;6.70;3.30;;;;;;;;;;5089524;28;20072;-85
2021/03/03 16:23:37;;;;;;;8.38;4.40;;;;;;;;;;5096134;28;20744;-84
2021/03/03 16:26:02;;;;;;;6.03;3.63;;;;;;;;;;5078838;28;20027;-85
2021/03/03 16:28:28;;;;;;;9.07;3.40;;;;;;;;;;5089344;28;20040;-84
2021/03/03 16:30:54;;;;;;;6.20;3.47;;;;;;;;;;5083219;28;20032;-82
2021/03/03 16:33:19;;;;;;;7.15;4.05;;;;;;;;;;5086506;28;20147;-84
2021/03/03 16:35:45;;;;;;;8.15;4.20;;;;;;;;;;5083622;28;20111;-84
2021/03/03 16:38:11;;;;;;;8.10;4.28;;;;;;;;;;5078420;28;20020;-85
2021/03/03 16:40:37;;;;;;;10.15;5.32;;;;;;;;;;5089323;28;20461;-83
2021/03/03 16:43:03;;;;;;;6.78;3.90;;;;;;;;;;5082269;28;20060;-82
2021/03/03 16:45:29;;;;;;;10.48;4.38;;;;;;;;;;5084014;28;20089;-85
2021/03/03 16:47:54;;;;;;;6.82;4.13;;;;;;;;;;5102486;28;20044;-80
2021/03/03 16:50:20;;;;;;;8.88;4.03;;;;;;;;;;5112888;28;20029;-80
2021/03/03 16:52:47;;;;;;;6.00;3.42;;;;;;;;;;5093194;28;20103;-85
2021/03/03 16:55:13;;;;;;;7.85;3.72;;;;;;;;;;5083523;28;20031;-81
2021/03/03 16:57:39;;;;;;;5.28;3.38;;;;;;;;;;5085692;28;20032;-83
2021/03/03 17:00:06;;;;;;;9.23;3.97;;;;;;;;;;5083365;28;20094;-85
2021/03/03 17:02:31;;;;;;;9.93;3.30;;;;;;;;;;5082972;28;20093;-88
2021/03/03 17:04:58;;;;;;;6.40;4.30;;;;;;;;;;5094835;28;20044;-83
2021/03/03 17:19:36;;;;;;;6.63;4.35;;;;;;;;;;5150944;27;20033;-86
2021/03/03 17:58:39;;;;;;;6.97;3.33;;;;;;;;;;5159477;27;20079;-86
2021/03/03 18:04:08;;;;;;;6.72;3.97;;;;;;;;;;5154671;27;20048;-86
2021/03/03 18:18:51;;;;;;;17.52;9.77;;;;;;;;;;5144412;27;20493;-82
2021/03/03 18:21:17;;;;;;;10.35;5.38;;;;;;;;;;5144375;27;20039;-82
2021/03/03 18:23:42;;;;;;;9.23;4.35;;;;;;;;;;5148940;27;20098;-83
2021/03/03 18:26:09;;;;;;;7.03;4.28;;;;;;;;;;5146744;27;20115;-82
2021/03/03 18:28:35;;;;;;;9.35;5.50;;;;;;;;;;5126588;27;20083;-82
2021/03/03 18:31:00;;;;;;;6.15;4.22;;;;;;;;;;5138582;27;20023;-82
2021/03/03 18:33:26;;;;;;;7.00;3.70;;;;;;;;;;5142460;27;20547;-83
2021/03/03 18:35:52;;;;;;;7.13;5.15;;;;;;;;;;5154218;27;20023;-83
2021/03/03 18:38:18;;;;;;;6.70;4.13;;;;;;;;;;5145027;27;20031;-82
2021/03/03 18:40:44;;;;;;;7.65;4.75;;;;;;;;;;5128437;27;20029;-82
2021/03/03 18:43:11;;;;;;;5.82;3.53;;;;;;;;;;5123060;27;20024;-82
2021/03/03 18:45:38;;;;;;;9.48;6.22;;;;;;;;;;5151678;27;20043;-82
2021/03/03 18:48:04;;;;;;;7.95;4.18;;;;;;;;;;5126504;27;20122;-83
2021/03/03 18:50:30;;;;;;;5.65;3.88;;;;;;;;;;5145801;27;20023;-83
2021/03/03 18:52:56;;;;;;;6.43;3.80;;;;;;;;;;5128729;27;20075;-83
2021/03/03 18:55:22;;;;;;;6.90;3.67;;;;;;;;;;5126004;27;20114;-82
2021/03/03 18:57:47;;;;;;;6.60;3.78;;;;;;;;;;5089615;27;20040;-83
2021/03/03 19:00:14;;;;;;;6.90;4.30;;;;;;;;;;5071664;28;20020;-82
2021/03/03 19:02:40;;;;;;;5.93;3.67;;;;;;;;;;5075975;28;20024;-82
2021/03/03 19:05:06;;;;;;;7.95;3.83;;;;;;;;;;5073286;28;20051;-83
2021/03/03 19:07:32;;;;;;;5.90;3.53;;;;;;;;;;5075663;28;20522;-82
2021/03/03 19:09:58;;;;;;;6.70;3.47;;;;;;;;;;5074156;28;20032;-83
2021/03/03 19:12:24;;;;;;;6.43;3.63;;;;;;;;;;5072435;28;20070;-84
2021/03/03 19:14:50;;;;;;;7.32;4.07;;;;;;;;;;5074354;28;20025;-83
2021/03/03 19:17:15;;;;;;;5.75;3.40;;;;;;;;;;5078504;28;20076;-83
2021/03/03 19:19:43;;;;;;;6.70;3.38;;;;;;;;;;5071926;28;20107;-83
2021/03/03 19:22:09;;;;;;;6.68;3.88;;;;;;;;;;5073683;28;20040;-84
2021/03/03 19:24:35;;;;;;;10.77;4.70;;;;;;;;;;5059011;28;20504;-84
2021/03/03 19:27:01;;;;;;;9.02;4.75;;;;;;;;;;5064630;28;20032;-84
2021/03/03 19:29:27;;;;;;;11.15;5.65;;;;;;;;;;5061529;28;20112;-83
2021/03/03 19:31:52;;;;;;;9.00;4.65;;;;;;;;;;5059295;28;20428;-83
2021/03/03 19:34:18;;;;;;;6.85;4.65;;;;;;;;;;5065398;28;20027;-84
2021/03/03 19:36:44;;;;;;;7.22;4.57;;;;;;;;;;5062358;28;20101;-83
2021/03/03 19:39:09;;;;;;;8.60;4.93;;;;;;;;;;5067407;28;20024;-83
2021/03/03 19:41:35;;;;;;;10.20;5.43;;;;;;;;;;5063151;28;20017;-83
2021/03/03 19:44:02;;;;;;;8.60;4.65;;;;;;;;;;5061733;28;20392;-83
2021/03/03 19:47:27;;;;;;;10.20;5.07;;;;;;;;;;5064974;28;20388;-83
2021/03/03 19:50:14;;;;;;;10.13;4.85;;;;;;;;;;5053569;28;20082;-83
2021/03/03 19:52:39;;;;;;;9.73;4.45;;;;;;;;;;5059989;28;20481;-82
2021/03/03 19:55:32;;;;;;;7.53;4.30;;;;;;;;;;5063315;28;20120;-83
2021/03/03 19:58:23;;;;;;;10.18;5.15;;;;;;;;;;5062920;28;20029;-83
2021/03/03 20:04:23;;;;;;;7.20;4.50;;;;;;;;;;5063807;28;20747;-82
2021/03/03 20:10:10;;;;;;;9.57;4.82;;;;;;;;;;5020988;28;20052;-84
2021/03/03 20:12:47;;;;;;;6.90;4.50;;;;;;;;;;5066328;28;20055;-83
2021/03/03 20:18:17;;;;;;;7.88;4.25;;;;;;;;;;5061709;28;20059;-83
2021/03/03 20:21:07;;;;;;;11.20;4.80;;;;;;;;;;5060583;28;20033;-82
2021/03/03 20:26:40;;;;;;;7.13;4.35;;;;;;;;;;5064190;28;20034;-82
2021/03/03 20:32:14;;;;;;;8.10;4.65;;;;;;;;;;5061350;28;20519;-84
2021/03/03 20:34:40;;;;;;;8.25;4.38;;;;;;;;;;5055773;28;20049;-84
2021/03/03 20:37:06;;;;;;;7.47;4.53;;;;;;;;;;5058567;28;20056;-84
2021/03/03 20:39:31;;;;;;;8.25;4.53;;;;;;;;;;5058392;28;20473;-84
2021/03/03 20:41:57;;;;;;;7.45;4.07;;;;;;;;;;5055130;28;20032;-84
2021/03/03 20:44:23;;;;;;;7.15;4.43;;;;;;;;;;5056991;28;20027;-83
2021/03/03 20:46:49;;;;;;;9.93;5.15;;;;;;;;;;5060291;28;20059;-84
2021/03/03 20:49:15;;;;;;;9.15;5.35;;;;;;;;;;5060613;28;20173;-84
2021/03/03 20:51:40;;;;;;;9.77;6.05;;;;;;;;;;5059512;28;20385;-83
2021/03/03 20:54:06;;;;;;;9.13;5.15;;;;;;;;;;5055562;28;20527;-84
2021/03/03 20:56:32;;;;;;;9.35;5.90;;;;;;;;;;5058545;28;20736;-84
2021/03/03 20:58:58;;;;;;;14.27;6.70;;;;;;;;;;5055590;28;20017;-83
2021/03/03 21:01:25;;;;;;;9.13;5.70;;;;;;;;;;5058546;28;20035;-84
2021/03/03 21:03:51;;;;;;;10.32;5.88;;;;;;;;;;5060227;28;20041;-84
2021/03/03 21:06:17;;;;;;;10.52;6.32;;;;;;;;;;5057831;28;20428;-83
2021/03/03 21:08:43;;;;;;;14.52;6.63;;;;;;;;;;5054572;28;20030;-84
2021/03/03 21:11:08;;;;;;;10.43;5.15;;;;;;;;;;5052477;28;20021;-84
2021/03/03 21:13:35;;;;;;;11.23;5.85;;;;;;;;;;5054985;28;20040;-84
2021/03/03 21:16:00;;;;;;;10.38;6.00;;;;;;;;;;5054111;28;20021;-83
2021/03/03 21:18:26;;;;;;;13.45;5.88;;;;;;;;;;5052288;28;20017;-83
2021/03/03 21:20:52;;;;;;;12.98;6.40;;;;;;;;;;5057324;28;20028;-83
2021/03/03 21:23:18;;;;;;;9.70;6.00;;;;;;;;;;5058754;28;20104;-83
2021/03/03 21:25:43;;;;;;;15.20;8.30;;;;;;;;;;5054889;28;20031;-84
2021/03/03 21:28:09;;;;;;;14.30;7.53;;;;;;;;;;5053812;28;20115;-84
2021/03/03 21:30:35;;;;;;;14.43;6.88;;;;;;;;;;5056823;28;20112;-84
2021/03/03 21:33:00;;;;;;;13.07;6.90;;;;;;;;;;5055483;28;20045;-84
2021/03/03 21:35:26;;;;;;;12.85;7.32;;;;;;;;;;5060305;28;20107;-83
2021/03/03 21:37:52;;;;;;;11.52;7.97;;;;;;;;;;5058558;28;20481;-84
2021/03/03 21:40:18;;;;;;;13.18;7.50;;;;;;;;;;5059454;28;20016;-83
2021/03/03 21:42:44;;;;;;;11.98;7.43;;;;;;;;;;5058685;28;20049;-84
2021/03/03 21:45:10;;;;;;;14.07;7.18;;;;;;;;;;5061816;28;20483;-83
2021/03/03 21:47:36;;;;;;;11.13;6.13;;;;;;;;;;5060808;28;20036;-83
2021/03/03 21:50:02;;;;;;;11.07;5.20;;;;;;;;;;5060831;28;20112;-83
2021/03/03 21:52:28;;;;;;;13.32;5.75;;;;;;;;;;5058456;28;20048;-83